الصفحة الرئيسية
صور الأقمار الصناعية توقعات الطقس لمدة 15 يوممناخالتوقعات البحرية إعصار برق مطارأسئلة وأجوبة النشرة الإخبارية حول
طقس : أوروبا أفريقيا أمريكا الشمالية أمريكا الجنوبية آسيا أستراليا-أوقيانوسيا آخرون
لغات جهة اتصال

سكاكا, السعودية

دائرة عرض: 29-47N, خط طول: 040-06E, ارتفاع: 689 m


METAR: OESK 012000Z 35003KT CAVOK 25/04 Q1011 NOSIG
TAF: OESK 011030Z 0112/0218 24014KT 7000 SKC BECMG 0118/0120 36008KT

زمن: 23:15 (20:15 UTC)

مراقبة الطقس الحالي

تاريخ و وقت الإصدار 15 دقيقة قبل الساعة 20:00 UTC  
ريح 03 kt من الشمال
درجة الحرارة 25°C
الرطوبة 26%
ضغط 1011 hPa
الرؤية 10 km أو أكثر
الغيوم لا تقل 1500 م وليس السحاب الأسود

تغيير وحدة

توقعات

تاريخ و وقت الإصدار 09 ساعات و 45 دقيقة قبل الساعة 10:30 UTC  
صالحة من التوقعات 01 في 12 بالتوقيت العالمي إلى 02 في 18 بالتوقيت العالمي
ريح 14 kt من الغرب/
الرؤية 7000 m
سماء صافية
أصبح
من 01 في 18 بالتوقيت العالمي إلى 01 في 20 بالتوقيت العالمي
ريح 08 kt من الشمال
المعلومات الواردة في هذا الموقع يخضع إخلاء
طقس : أوروبا أفريقيا أمريكا الشمالية أمريكا الجنوبية آسيا أستراليا-أوقيانوسيا آخرون
صور الأقمار الصناعية توقعات الطقس لمدة 15 يوممناخالتوقعات البحرية إعصار برق مطارأسئلة وأجوبة لغات جهة اتصال النشرة الإخبارية حول